Apple Valley, Minnesota
Current Conditions -  °F | °C
As of 6:28 PM on Friday 24 Oct 2014 (Local Time) from KLVN Reporting Station
Clear Clear  
Wind Chill: 61°   Ceiling: Unl
Heat Index: 61°   Visibility: 10mi
Dew Point: 54°   Wind: 0mph
Humidity: 77%   Direction: NA
Pressure: 29.86"   Gusts: NA
Location:  44.74°N, 93.22°W
Report Text: KLVN 242328Z AUTO 00000KT 10SM CLR 16/12 A2986 RMK AO2
Loading
Personal Weather Stations






























Interactive Weather Map
Tropical Storm Tracking
New forecast layout! Learn more

10-Day Weather Forecast

Advertisements
Track Severe Weather on mobile